sensor_id;sensor_type;location;lat;lon;timestamp;P1;durP1;ratioP1;P2;durP2;ratioP2
80398;SDS011;69722;48.642;9.142;2023-05-25T00:01:20;8.98;;;6.13;;
80398;SDS011;69722;48.642;9.142;2023-05-25T00:03:45;11.88;;;6.78;;
80398;SDS011;69722;48.642;9.142;2023-05-25T00:06:11;12.30;;;6.33;;
80398;SDS011;69722;48.642;9.142;2023-05-25T00:08:38;11.20;;;6.50;;
80398;SDS011;69722;48.642;9.142;2023-05-25T00:11:04;9.15;;;6.28;;
80398;SDS011;69722;48.642;9.142;2023-05-25T00:13:30;10.73;;;6.40;;
80398;SDS011;69722;48.642;9.142;2023-05-25T00:15:55;8.52;;;6.40;;
80398;SDS011;69722;48.642;9.142;2023-05-25T00:18:20;10.03;;;6.77;;
80398;SDS011;69722;48.642;9.142;2023-05-25T00:20:46;9.00;;;6.00;;
80398;SDS011;69722;48.642;9.142;2023-05-25T00:23:11;11.07;;;6.53;;
80398;SDS011;69722;48.642;9.142;2023-05-25T00:25:37;10.95;;;6.28;;
80398;SDS011;69722;48.642;9.142;2023-05-25T00:28:02;11.60;;;6.27;;
80398;SDS011;69722;48.642;9.142;2023-05-25T00:30:28;9.95;;;5.80;;
80398;SDS011;69722;48.642;9.142;2023-05-25T00:32:54;9.63;;;6.22;;
80398;SDS011;69722;48.642;9.142;2023-05-25T00:35:19;11.27;;;6.78;;
80398;SDS011;69722;48.642;9.142;2023-05-25T00:37:45;10.40;;;6.40;;
80398;SDS011;69722;48.642;9.142;2023-05-25T00:40:12;9.75;;;5.80;;
80398;SDS011;69722;48.642;9.142;2023-05-25T00:42:40;9.15;;;5.97;;
80398;SDS011;69722;48.642;9.142;2023-05-25T00:45:05;12.10;;;6.30;;
80398;SDS011;69722;48.642;9.142;2023-05-25T00:47:31;8.93;;;6.15;;
80398;SDS011;69722;48.642;9.142;2023-05-25T00:49:57;10.65;;;6.68;;
80398;SDS011;69722;48.642;9.142;2023-05-25T00:52:22;9.32;;;6.43;;
80398;SDS011;69722;48.642;9.142;2023-05-25T00:54:50;8.48;;;5.18;;
80398;SDS011;69722;48.642;9.142;2023-05-25T00:57:19;9.48;;;5.70;;
80398;SDS011;69722;48.642;9.142;2023-05-25T00:59:47;12.27;;;6.40;;
80398;SDS011;69722;48.642;9.142;2023-05-25T01:02:15;10.80;;;6.63;;
80398;SDS011;69722;48.642;9.142;2023-05-25T01:04:44;8.60;;;5.55;;
80398;SDS011;69722;48.642;9.142;2023-05-25T01:07:23;9.85;;;5.97;;
80398;SDS011;69722;48.642;9.142;2023-05-25T01:09:53;9.05;;;5.90;;
80398;SDS011;69722;48.642;9.142;2023-05-25T01:12:22;9.82;;;5.97;;
80398;SDS011;69722;48.642;9.142;2023-05-25T01:14:48;8.88;;;5.45;;
80398;SDS011;69722;48.642;9.142;2023-05-25T01:17:14;9.32;;;6.22;;
80398;SDS011;69722;48.642;9.142;2023-05-25T01:19:40;9.40;;;5.82;;
80398;SDS011;69722;48.642;9.142;2023-05-25T01:22:30;8.63;;;5.40;;
80398;SDS011;69722;48.642;9.142;2023-05-25T01:25:03;9.32;;;6.18;;
80398;SDS011;69722;48.642;9.142;2023-05-25T01:27:35;9.48;;;5.53;;
80398;SDS011;69722;48.642;9.142;2023-05-25T01:30:13;8.43;;;4.95;;
80398;SDS011;69722;48.642;9.142;2023-05-25T01:32:41;10.18;;;6.30;;
80398;SDS011;69722;48.642;9.142;2023-05-25T01:35:07;8.15;;;5.55;;
80398;SDS011;69722;48.642;9.142;2023-05-25T01:37:34;8.13;;;5.00;;
80398;SDS011;69722;48.642;9.142;2023-05-25T01:40:01;11.25;;;5.88;;
80398;SDS011;69722;48.642;9.142;2023-05-25T01:42:27;8.40;;;5.80;;
80398;SDS011;69722;48.642;9.142;2023-05-25T01:44:53;8.37;;;5.67;;
80398;SDS011;69722;48.642;9.142;2023-05-25T01:47:31;7.43;;;4.80;;
80398;SDS011;69722;48.642;9.142;2023-05-25T01:50:14;8.88;;;5.78;;
80398;SDS011;69722;48.642;9.142;2023-05-25T01:52:46;8.13;;;5.70;;
80398;SDS011;69722;48.642;9.142;2023-05-25T01:55:16;7.88;;;5.18;;
80398;SDS011;69722;48.642;9.142;2023-05-25T02:00:11;8.38;;;5.45;;
80398;SDS011;69722;48.642;9.142;2023-05-25T02:02:37;9.68;;;5.70;;
80398;SDS011;69722;48.642;9.142;2023-05-25T02:05:05;9.20;;;5.18;;
80398;SDS011;69722;48.642;9.142;2023-05-25T02:07:30;10.63;;;5.90;;
80398;SDS011;69722;48.642;9.142;2023-05-25T02:09:55;8.60;;;4.87;;
80398;SDS011;69722;48.642;9.142;2023-05-25T02:12:21;8.83;;;5.47;;
80398;SDS011;69722;48.642;9.142;2023-05-25T02:14:46;8.23;;;5.18;;
80398;SDS011;69722;48.642;9.142;2023-05-25T02:17:13;10.25;;;5.72;;
80398;SDS011;69722;48.642;9.142;2023-05-25T02:19:38;7.68;;;4.60;;
80398;SDS011;69722;48.642;9.142;2023-05-25T02:22:04;9.13;;;5.50;;
80398;SDS011;69722;48.642;9.142;2023-05-25T02:24:29;7.78;;;5.03;;
80398;SDS011;69722;48.642;9.142;2023-05-25T02:26:55;7.25;;;4.65;;
80398;SDS011;69722;48.642;9.142;2023-05-25T02:29:20;9.00;;;4.63;;
80398;SDS011;69722;48.642;9.142;2023-05-25T02:31:46;7.97;;;4.90;;
80398;SDS011;69722;48.642;9.142;2023-05-25T02:34:11;9.43;;;5.00;;
80398;SDS011;69722;48.642;9.142;2023-05-25T02:36:37;9.13;;;5.47;;
80398;SDS011;69722;48.642;9.142;2023-05-25T02:39:03;8.35;;;4.95;;
80398;SDS011;69722;48.642;9.142;2023-05-25T02:41:28;7.65;;;4.65;;
80398;SDS011;69722;48.642;9.142;2023-05-25T02:43:54;9.17;;;5.20;;
80398;SDS011;69722;48.642;9.142;2023-05-25T02:46:19;7.60;;;4.57;;
80398;SDS011;69722;48.642;9.142;2023-05-25T02:48:46;7.88;;;5.55;;
80398;SDS011;69722;48.642;9.142;2023-05-25T02:51:11;10.47;;;5.40;;
80398;SDS011;69722;48.642;9.142;2023-05-25T02:53:37;8.83;;;4.90;;
80398;SDS011;69722;48.642;9.142;2023-05-25T02:56:02;7.33;;;5.23;;
80398;SDS011;69722;48.642;9.142;2023-05-25T02:58:29;8.73;;;5.32;;
80398;SDS011;69722;48.642;9.142;2023-05-25T03:00:54;5.85;;;4.20;;
80398;SDS011;69722;48.642;9.142;2023-05-25T03:03:20;8.00;;;4.33;;
80398;SDS011;69722;48.642;9.142;2023-05-25T03:05:47;6.82;;;4.75;;
80398;SDS011;69722;48.642;9.142;2023-05-25T03:08:12;8.98;;;4.35;;
80398;SDS011;69722;48.642;9.142;2023-05-25T03:10:38;8.43;;;4.87;;
80398;SDS011;69722;48.642;9.142;2023-05-25T03:13:03;6.70;;;4.07;;
80398;SDS011;69722;48.642;9.142;2023-05-25T03:15:31;7.10;;;4.32;;
80398;SDS011;69722;48.642;9.142;2023-05-25T03:17:57;7.88;;;4.60;;
80398;SDS011;69722;48.642;9.142;2023-05-25T03:20:25;8.80;;;5.20;;
80398;SDS011;69722;48.642;9.142;2023-05-25T03:22:51;11.40;;;4.88;;
80398;SDS011;69722;48.642;9.142;2023-05-25T03:25:17;7.72;;;4.43;;
80398;SDS011;69722;48.642;9.142;2023-05-25T03:27:42;12.10;;;4.80;;
80398;SDS011;69722;48.642;9.142;2023-05-25T03:30:08;10.63;;;4.20;;
80398;SDS011;69722;48.642;9.142;2023-05-25T03:32:34;9.57;;;4.22;;
80398;SDS011;69722;48.642;9.142;2023-05-25T03:35:00;7.65;;;4.20;;
80398;SDS011;69722;48.642;9.142;2023-05-25T03:37:25;8.30;;;3.65;;
80398;SDS011;69722;48.642;9.142;2023-05-25T03:39:51;10.67;;;4.87;;
80398;SDS011;69722;48.642;9.142;2023-05-25T03:42:16;8.07;;;3.60;;
80398;SDS011;69722;48.642;9.142;2023-05-25T03:44:41;9.63;;;4.20;;
80398;SDS011;69722;48.642;9.142;2023-05-25T03:47:07;8.37;;;3.97;;
80398;SDS011;69722;48.642;9.142;2023-05-25T03:49:32;8.38;;;3.83;;
80398;SDS011;69722;48.642;9.142;2023-05-25T03:51:58;10.67;;;4.13;;
80398;SDS011;69722;48.642;9.142;2023-05-25T03:54:25;6.20;;;3.60;;
80398;SDS011;69722;48.642;9.142;2023-05-25T03:56:50;6.85;;;3.97;;
80398;SDS011;69722;48.642;9.142;2023-05-25T03:59:16;7.10;;;4.27;;
80398;SDS011;69722;48.642;9.142;2023-05-25T04:01:42;8.07;;;4.32;;
80398;SDS011;69722;48.642;9.142;2023-05-25T04:04:07;6.87;;;3.80;;
80398;SDS011;69722;48.642;9.142;2023-05-25T04:06:33;5.90;;;3.60;;
80398;SDS011;69722;48.642;9.142;2023-05-25T04:09:01;5.70;;;3.63;;
80398;SDS011;69722;48.642;9.142;2023-05-25T04:11:28;7.35;;;3.97;;
80398;SDS011;69722;48.642;9.142;2023-05-25T04:13:53;8.32;;;3.70;;
80398;SDS011;69722;48.642;9.142;2023-05-25T04:16:19;7.17;;;3.53;;
80398;SDS011;69722;48.642;9.142;2023-05-25T04:18:45;7.18;;;3.90;;
80398;SDS011;69722;48.642;9.142;2023-05-25T04:21:13;5.77;;;3.73;;
80398;SDS011;69722;48.642;9.142;2023-05-25T04:23:40;6.97;;;3.88;;
80398;SDS011;69722;48.642;9.142;2023-05-25T04:26:07;6.20;;;3.70;;
80398;SDS011;69722;48.642;9.142;2023-05-25T04:30:59;11.82;;;3.80;;
80398;SDS011;69722;48.642;9.142;2023-05-25T04:33:25;13.02;;;3.60;;
80398;SDS011;69722;48.642;9.142;2023-05-25T04:35:53;5.97;;;3.15;;
80398;SDS011;69722;48.642;9.142;2023-05-25T04:38:22;5.45;;;2.92;;
80398;SDS011;69722;48.642;9.142;2023-05-25T04:40:49;8.80;;;4.18;;
80398;SDS011;69722;48.642;9.142;2023-05-25T04:43:15;7.25;;;3.50;;
80398;SDS011;69722;48.642;9.142;2023-05-25T04:45:42;8.70;;;3.58;;
80398;SDS011;69722;48.642;9.142;2023-05-25T04:48:09;10.05;;;3.38;;
80398;SDS011;69722;48.642;9.142;2023-05-25T04:50:37;7.65;;;3.70;;
80398;SDS011;69722;48.642;9.142;2023-05-25T04:53:04;6.57;;;3.88;;
80398;SDS011;69722;48.642;9.142;2023-05-25T04:55:30;8.07;;;3.60;;
80398;SDS011;69722;48.642;9.142;2023-05-25T04:57:55;9.63;;;3.73;;
80398;SDS011;69722;48.642;9.142;2023-05-25T05:00:21;7.13;;;3.30;;
80398;SDS011;69722;48.642;9.142;2023-05-25T05:02:46;10.40;;;3.42;;
80398;SDS011;69722;48.642;9.142;2023-05-25T05:05:12;7.57;;;3.42;;
80398;SDS011;69722;48.642;9.142;2023-05-25T05:07:37;9.17;;;3.53;;
80398;SDS011;69722;48.642;9.142;2023-05-25T05:10:02;5.77;;;3.07;;
80398;SDS011;69722;48.642;9.142;2023-05-25T05:12:28;5.65;;;3.60;;
80398;SDS011;69722;48.642;9.142;2023-05-25T05:14:53;7.37;;;3.17;;
80398;SDS011;69722;48.642;9.142;2023-05-25T05:17:19;6.13;;;3.33;;
80398;SDS011;69722;48.642;9.142;2023-05-25T05:19:45;5.80;;;3.00;;
80398;SDS011;69722;48.642;9.142;2023-05-25T05:22:11;7.43;;;3.47;;
80398;SDS011;69722;48.642;9.142;2023-05-25T05:24:37;8.60;;;3.03;;
80398;SDS011;69722;48.642;9.142;2023-05-25T05:27:02;6.57;;;3.30;;
80398;SDS011;69722;48.642;9.142;2023-05-25T05:29:27;7.05;;;3.50;;
80398;SDS011;69722;48.642;9.142;2023-05-25T05:31:56;7.55;;;3.70;;
80398;SDS011;69722;48.642;9.142;2023-05-25T05:34:21;5.65;;;3.28;;
80398;SDS011;69722;48.642;9.142;2023-05-25T05:36:47;5.80;;;3.20;;
80398;SDS011;69722;48.642;9.142;2023-05-25T05:39:12;5.73;;;3.13;;
80398;SDS011;69722;48.642;9.142;2023-05-25T05:41:38;6.85;;;3.70;;
80398;SDS011;69722;48.642;9.142;2023-05-25T05:44:03;6.60;;;3.20;;
80398;SDS011;69722;48.642;9.142;2023-05-25T05:46:28;5.50;;;3.30;;
80398;SDS011;69722;48.642;9.142;2023-05-25T05:48:54;7.00;;;3.70;;
80398;SDS011;69722;48.642;9.142;2023-05-25T05:51:19;5.50;;;2.93;;
80398;SDS011;69722;48.642;9.142;2023-05-25T05:53:44;9.32;;;3.40;;
80398;SDS011;69722;48.642;9.142;2023-05-25T05:56:16;6.53;;;3.60;;
80398;SDS011;69722;48.642;9.142;2023-05-25T05:58:42;5.15;;;3.10;;
80398;SDS011;69722;48.642;9.142;2023-05-25T06:01:08;6.63;;;3.15;;
80398;SDS011;69722;48.642;9.142;2023-05-25T06:03:33;6.67;;;3.20;;
80398;SDS011;69722;48.642;9.142;2023-05-25T06:05:59;5.53;;;3.28;;
80398;SDS011;69722;48.642;9.142;2023-05-25T06:08:24;5.65;;;3.25;;
80398;SDS011;69722;48.642;9.142;2023-05-25T06:10:50;7.22;;;3.20;;
80398;SDS011;69722;48.642;9.142;2023-05-25T06:13:15;5.77;;;3.10;;
80398;SDS011;69722;48.642;9.142;2023-05-25T06:15:41;6.88;;;3.38;;
80398;SDS011;69722;48.642;9.142;2023-05-25T06:18:06;5.63;;;3.20;;
80398;SDS011;69722;48.642;9.142;2023-05-25T06:20:32;5.45;;;2.72;;
80398;SDS011;69722;48.642;9.142;2023-05-25T06:22:57;7.03;;;3.15;;
80398;SDS011;69722;48.642;9.142;2023-05-25T06:25:22;5.57;;;3.20;;
80398;SDS011;69722;48.642;9.142;2023-05-25T06:27:48;4.20;;;3.20;;
80398;SDS011;69722;48.642;9.142;2023-05-25T06:30:13;6.90;;;3.10;;
80398;SDS011;69722;48.642;9.142;2023-05-25T06:32:39;5.57;;;2.80;;
80398;SDS011;69722;48.642;9.142;2023-05-25T06:35:04;5.07;;;2.78;;
80398;SDS011;69722;48.642;9.142;2023-05-25T06:37:30;6.30;;;2.75;;
80398;SDS011;69722;48.642;9.142;2023-05-25T06:39:59;4.97;;;2.75;;
80398;SDS011;69722;48.642;9.142;2023-05-25T06:42:26;5.35;;;2.80;;
80398;SDS011;69722;48.642;9.142;2023-05-25T06:44:51;6.32;;;3.13;;
80398;SDS011;69722;48.642;9.142;2023-05-25T06:47:18;6.13;;;2.90;;
80398;SDS011;69722;48.642;9.142;2023-05-25T06:49:43;6.87;;;3.17;;
80398;SDS011;69722;48.642;9.142;2023-05-25T06:52:08;4.90;;;2.90;;
80398;SDS011;69722;48.642;9.142;2023-05-25T06:54:34;5.53;;;2.90;;
80398;SDS011;69722;48.642;9.142;2023-05-25T06:56:59;5.88;;;3.13;;
80398;SDS011;69722;48.642;9.142;2023-05-25T06:59:25;4.78;;;2.90;;
80398;SDS011;69722;48.642;9.142;2023-05-25T07:01:50;5.17;;;2.93;;
80398;SDS011;69722;48.642;9.142;2023-05-25T07:04:15;5.20;;;2.80;;
80398;SDS011;69722;48.642;9.142;2023-05-25T07:06:41;4.57;;;2.90;;
80398;SDS011;69722;48.642;9.142;2023-05-25T07:09:06;4.70;;;2.95;;
80398;SDS011;69722;48.642;9.142;2023-05-25T07:11:32;3.93;;;2.53;;
80398;SDS011;69722;48.642;9.142;2023-05-25T07:13:57;6.10;;;3.00;;
80398;SDS011;69722;48.642;9.142;2023-05-25T07:16:22;7.93;;;2.87;;
80398;SDS011;69722;48.642;9.142;2023-05-25T07:18:49;5.18;;;2.88;;
80398;SDS011;69722;48.642;9.142;2023-05-25T07:21:14;5.70;;;2.95;;
80398;SDS011;69722;48.642;9.142;2023-05-25T07:23:40;5.93;;;3.23;;
80398;SDS011;69722;48.642;9.142;2023-05-25T07:26:05;6.90;;;3.00;;
80398;SDS011;69722;48.642;9.142;2023-05-25T07:28:31;4.87;;;3.00;;
80398;SDS011;69722;48.642;9.142;2023-05-25T07:30:56;7.10;;;3.38;;
80398;SDS011;69722;48.642;9.142;2023-05-25T07:33:21;9.27;;;3.50;;
80398;SDS011;69722;48.642;9.142;2023-05-25T07:35:47;7.53;;;3.40;;
80398;SDS011;69722;48.642;9.142;2023-05-25T07:38:12;6.60;;;3.17;;
80398;SDS011;69722;48.642;9.142;2023-05-25T07:40:37;9.53;;;3.30;;
80398;SDS011;69722;48.642;9.142;2023-05-25T07:43:03;7.93;;;3.83;;
80398;SDS011;69722;48.642;9.142;2023-05-25T07:45:29;11.95;;;3.75;;
80398;SDS011;69722;48.642;9.142;2023-05-25T07:47:54;6.38;;;3.10;;
80398;SDS011;69722;48.642;9.142;2023-05-25T07:50:20;7.53;;;3.07;;
80398;SDS011;69722;48.642;9.142;2023-05-25T07:52:45;8.75;;;3.45;;
80398;SDS011;69722;48.642;9.142;2023-05-25T07:55:10;7.67;;;3.50;;
80398;SDS011;69722;48.642;9.142;2023-05-25T07:57:36;5.90;;;3.28;;
80398;SDS011;69722;48.642;9.142;2023-05-25T08:00:01;7.03;;;3.08;;
80398;SDS011;69722;48.642;9.142;2023-05-25T08:02:30;7.43;;;3.22;;
80398;SDS011;69722;48.642;9.142;2023-05-25T08:04:55;7.80;;;3.50;;
80398;SDS011;69722;48.642;9.142;2023-05-25T08:07:20;15.47;;;3.77;;
80398;SDS011;69722;48.642;9.142;2023-05-25T08:09:46;7.67;;;3.33;;
80398;SDS011;69722;48.642;9.142;2023-05-25T08:12:11;9.52;;;3.40;;
80398;SDS011;69722;48.642;9.142;2023-05-25T08:14:37;7.50;;;3.27;;
80398;SDS011;69722;48.642;9.142;2023-05-25T08:17:02;6.50;;;3.13;;
80398;SDS011;69722;48.642;9.142;2023-05-25T08:19:28;7.93;;;3.38;;
80398;SDS011;69722;48.642;9.142;2023-05-25T08:21:56;6.13;;;3.50;;
80398;SDS011;69722;48.642;9.142;2023-05-25T08:24:21;6.83;;;3.07;;
80398;SDS011;69722;48.642;9.142;2023-05-25T08:26:46;9.75;;;3.50;;
80398;SDS011;69722;48.642;9.142;2023-05-25T08:29:12;8.70;;;3.38;;
80398;SDS011;69722;48.642;9.142;2023-05-25T08:31:38;6.47;;;3.53;;
80398;SDS011;69722;48.642;9.142;2023-05-25T08:34:06;6.28;;;3.20;;
80398;SDS011;69722;48.642;9.142;2023-05-25T08:36:31;7.85;;;3.08;;
80398;SDS011;69722;48.642;9.142;2023-05-25T08:38:57;7.80;;;3.45;;
80398;SDS011;69722;48.642;9.142;2023-05-25T08:41:23;8.67;;;3.83;;
80398;SDS011;69722;48.642;9.142;2023-05-25T08:43:48;7.13;;;3.13;;
80398;SDS011;69722;48.642;9.142;2023-05-25T08:46:14;6.22;;;3.70;;
80398;SDS011;69722;48.642;9.142;2023-05-25T08:51:09;7.47;;;3.30;;
80398;SDS011;69722;48.642;9.142;2023-05-25T08:53:35;8.57;;;3.10;;
80398;SDS011;69722;48.642;9.142;2023-05-25T09:01:43;9.75;;;3.40;;
80398;SDS011;69722;48.642;9.142;2023-05-25T09:04:10;8.77;;;3.30;;
80398;SDS011;69722;48.642;9.142;2023-05-25T09:06:38;6.25;;;3.22;;
80398;SDS011;69722;48.642;9.142;2023-05-25T09:09:04;6.53;;;3.60;;
80398;SDS011;69722;48.642;9.142;2023-05-25T09:11:29;8.18;;;3.80;;
80398;SDS011;69722;48.642;9.142;2023-05-25T09:13:55;6.68;;;3.10;;
80398;SDS011;69722;48.642;9.142;2023-05-25T09:16:21;6.85;;;2.92;;
80398;SDS011;69722;48.642;9.142;2023-05-25T09:18:46;6.13;;;2.83;;
80398;SDS011;69722;48.642;9.142;2023-05-25T09:21:12;8.40;;;3.17;;
80398;SDS011;69722;48.642;9.142;2023-05-25T09:23:37;5.25;;;3.20;;
80398;SDS011;69722;48.642;9.142;2023-05-25T09:26:02;8.83;;;3.47;;
80398;SDS011;69722;48.642;9.142;2023-05-25T09:28:28;7.95;;;3.22;;
80398;SDS011;69722;48.642;9.142;2023-05-25T09:30:54;7.05;;;3.40;;
80398;SDS011;69722;48.642;9.142;2023-05-25T09:33:20;8.50;;;3.20;;
80398;SDS011;69722;48.642;9.142;2023-05-25T09:35:45;5.97;;;3.40;;
80398;SDS011;69722;48.642;9.142;2023-05-25T09:38:13;8.30;;;4.20;;
80398;SDS011;69722;48.642;9.142;2023-05-25T09:40:40;5.95;;;3.30;;
80398;SDS011;69722;48.642;9.142;2023-05-25T09:43:05;7.93;;;3.40;;
80398;SDS011;69722;48.642;9.142;2023-05-25T09:45:30;6.13;;;3.47;;
80398;SDS011;69722;48.642;9.142;2023-05-25T09:47:56;7.40;;;3.83;;
80398;SDS011;69722;48.642;9.142;2023-05-25T09:50:22;8.52;;;3.60;;
80398;SDS011;69722;48.642;9.142;2023-05-25T09:52:47;6.40;;;3.72;;
80398;SDS011;69722;48.642;9.142;2023-05-25T09:55:13;8.07;;;3.53;;
80398;SDS011;69722;48.642;9.142;2023-05-25T09:57:39;5.35;;;3.50;;
80398;SDS011;69722;48.642;9.142;2023-05-25T10:00:05;7.87;;;3.60;;
80398;SDS011;69722;48.642;9.142;2023-05-25T10:02:30;10.88;;;3.88;;
80398;SDS011;69722;48.642;9.142;2023-05-25T10:04:56;7.77;;;3.60;;
80398;SDS011;69722;48.642;9.142;2023-05-25T10:07:22;8.83;;;4.03;;
80398;SDS011;69722;48.642;9.142;2023-05-25T10:09:47;9.00;;;3.70;;
80398;SDS011;69722;48.642;9.142;2023-05-25T10:12:16;9.15;;;3.70;;
80398;SDS011;69722;48.642;9.142;2023-05-25T10:14:44;6.57;;;3.63;;
80398;SDS011;69722;48.642;9.142;2023-05-25T10:17:10;10.10;;;3.72;;
80398;SDS011;69722;48.642;9.142;2023-05-25T10:19:40;7.00;;;3.22;;
80398;SDS011;69722;48.642;9.142;2023-05-25T10:22:20;5.53;;;3.85;;
80398;SDS011;69722;48.642;9.142;2023-05-25T10:25:22;7.57;;;3.45;;
80398;SDS011;69722;48.642;9.142;2023-05-25T10:27:54;6.30;;;3.88;;
80398;SDS011;69722;48.642;9.142;2023-05-25T10:30:25;7.07;;;3.78;;
80398;SDS011;69722;48.642;9.142;2023-05-25T10:32:52;10.43;;;3.92;;
80398;SDS011;69722;48.642;9.142;2023-05-25T10:35:18;6.32;;;3.97;;
80398;SDS011;69722;48.642;9.142;2023-05-25T10:37:45;6.38;;;3.72;;
80398;SDS011;69722;48.642;9.142;2023-05-25T10:40:11;7.88;;;3.95;;
80398;SDS011;69722;48.642;9.142;2023-05-25T10:42:37;11.32;;;4.68;;
80398;SDS011;69722;48.642;9.142;2023-05-25T10:45:07;7.25;;;4.43;;
80398;SDS011;69722;48.642;9.142;2023-05-25T10:47:36;7.93;;;4.82;;
80398;SDS011;69722;48.642;9.142;2023-05-25T10:50:06;7.43;;;4.32;;
80398;SDS011;69722;48.642;9.142;2023-05-25T10:52:31;9.10;;;4.18;;
80398;SDS011;69722;48.642;9.142;2023-05-25T10:55:00;9.05;;;4.43;;
80398;SDS011;69722;48.642;9.142;2023-05-25T10:57:28;8.73;;;4.45;;
80398;SDS011;69722;48.642;9.142;2023-05-25T10:59:54;6.82;;;3.65;;
80398;SDS011;69722;48.642;9.142;2023-05-25T11:02:28;7.70;;;3.45;;
80398;SDS011;69722;48.642;9.142;2023-05-25T11:08:02;8.13;;;4.35;;
80398;SDS011;69722;48.642;9.142;2023-05-25T11:15:47;9.90;;;5.25;;
80398;SDS011;69722;48.642;9.142;2023-05-25T11:18:16;26.08;;;5.07;;
80398;SDS011;69722;48.642;9.142;2023-05-25T11:20:41;16.30;;;5.10;;
80398;SDS011;69722;48.642;9.142;2023-05-25T11:23:22;7.27;;;4.23;;
80398;SDS011;69722;48.642;9.142;2023-05-25T11:25:47;6.55;;;3.72;;
80398;SDS011;69722;48.642;9.142;2023-05-25T11:28:13;10.30;;;3.95;;
80398;SDS011;69722;48.642;9.142;2023-05-25T11:30:39;7.00;;;4.35;;
80398;SDS011;69722;48.642;9.142;2023-05-25T11:33:06;10.00;;;4.25;;
80398;SDS011;69722;48.642;9.142;2023-05-25T11:35:32;13.68;;;4.72;;
80398;SDS011;69722;48.642;9.142;2023-05-25T11:38:00;11.23;;;4.40;;
80398;SDS011;69722;48.642;9.142;2023-05-25T11:40:30;7.97;;;3.50;;
80398;SDS011;69722;48.642;9.142;2023-05-25T11:42:56;10.52;;;4.43;;
80398;SDS011;69722;48.642;9.142;2023-05-25T11:45:24;9.60;;;3.75;;
80398;SDS011;69722;48.642;9.142;2023-05-25T11:47:52;7.30;;;4.15;;
80398;SDS011;69722;48.642;9.142;2023-05-25T11:50:17;8.13;;;3.90;;
80398;SDS011;69722;48.642;9.142;2023-05-25T11:52:43;9.57;;;4.53;;
80398;SDS011;69722;48.642;9.142;2023-05-25T11:55:11;8.57;;;4.17;;
80398;SDS011;69722;48.642;9.142;2023-05-25T11:57:38;8.20;;;4.10;;
80398;SDS011;69722;48.642;9.142;2023-05-25T12:00:04;7.25;;;3.88;;
80398;SDS011;69722;48.642;9.142;2023-05-25T12:02:35;9.23;;;4.22;;
80398;SDS011;69722;48.642;9.142;2023-05-25T12:05:01;6.30;;;4.03;;
80398;SDS011;69722;48.642;9.142;2023-05-25T12:07:27;6.82;;;3.95;;
80398;SDS011;69722;48.642;9.142;2023-05-25T12:10:06;6.50;;;3.83;;
80398;SDS011;69722;48.642;9.142;2023-05-25T12:15:10;7.57;;;3.53;;
80398;SDS011;69722;48.642;9.142;2023-05-25T12:17:39;8.13;;;4.45;;
80398;SDS011;69722;48.642;9.142;2023-05-25T12:20:05;6.25;;;3.75;;
80398;SDS011;69722;48.642;9.142;2023-05-25T12:22:31;8.15;;;3.75;;
80398;SDS011;69722;48.642;9.142;2023-05-25T12:24:57;5.85;;;3.85;;
80398;SDS011;69722;48.642;9.142;2023-05-25T12:27:23;7.70;;;3.75;;
80398;SDS011;69722;48.642;9.142;2023-05-25T12:29:48;8.32;;;3.65;;
80398;SDS011;69722;48.642;9.142;2023-05-25T12:32:14;6.13;;;3.70;;
80398;SDS011;69722;48.642;9.142;2023-05-25T12:34:39;5.97;;;3.55;;
80398;SDS011;69722;48.642;9.142;2023-05-25T12:37:06;6.13;;;3.63;;
80398;SDS011;69722;48.642;9.142;2023-05-25T12:39:43;8.32;;;3.78;;
80398;SDS011;69722;48.642;9.142;2023-05-25T12:42:12;12.23;;;4.00;;
80398;SDS011;69722;48.642;9.142;2023-05-25T12:44:42;7.70;;;3.53;;
80398;SDS011;69722;48.642;9.142;2023-05-25T12:47:09;11.10;;;4.13;;
80398;SDS011;69722;48.642;9.142;2023-05-25T12:49:36;6.53;;;3.97;;
80398;SDS011;69722;48.642;9.142;2023-05-25T12:52:02;6.35;;;2.90;;
80398;SDS011;69722;48.642;9.142;2023-05-25T12:54:41;4.65;;;2.15;;
80398;SDS011;69722;48.642;9.142;2023-05-25T12:57:14;3.95;;;2.63;;
80398;SDS011;69722;48.642;9.142;2023-05-25T12:59:41;5.07;;;3.10;;
80398;SDS011;69722;48.642;9.142;2023-05-25T13:02:08;6.30;;;3.00;;
80398;SDS011;69722;48.642;9.142;2023-05-25T13:04:34;10.02;;;3.25;;
80398;SDS011;69722;48.642;9.142;2023-05-25T13:07:00;5.28;;;3.15;;
80398;SDS011;69722;48.642;9.142;2023-05-25T13:09:26;5.68;;;3.65;;
80398;SDS011;69722;48.642;9.142;2023-05-25T13:11:55;6.22;;;3.22;;
80398;SDS011;69722;48.642;9.142;2023-05-25T13:14:21;5.22;;;2.90;;
80398;SDS011;69722;48.642;9.142;2023-05-25T13:16:48;4.18;;;3.00;;
80398;SDS011;69722;48.642;9.142;2023-05-25T13:19:14;3.92;;;3.10;;
80398;SDS011;69722;48.642;9.142;2023-05-25T13:21:39;6.07;;;3.20;;
80398;SDS011;69722;48.642;9.142;2023-05-25T13:24:05;5.33;;;2.83;;
80398;SDS011;69722;48.642;9.142;2023-05-25T13:26:31;7.60;;;3.40;;
80398;SDS011;69722;48.642;9.142;2023-05-25T13:28:56;8.20;;;3.60;;
80398;SDS011;69722;48.642;9.142;2023-05-25T13:31:21;6.88;;;3.53;;
80398;SDS011;69722;48.642;9.142;2023-05-25T13:33:47;4.67;;;3.17;;
80398;SDS011;69722;48.642;9.142;2023-05-25T13:36:12;6.50;;;3.80;;
80398;SDS011;69722;48.642;9.142;2023-05-25T13:38:39;7.40;;;3.60;;
80398;SDS011;69722;48.642;9.142;2023-05-25T13:41:05;7.28;;;3.75;;
80398;SDS011;69722;48.642;9.142;2023-05-25T13:43:30;9.10;;;3.55;;
80398;SDS011;69722;48.642;9.142;2023-05-25T13:45:55;4.95;;;3.50;;
80398;SDS011;69722;48.642;9.142;2023-05-25T13:48:22;6.63;;;3.53;;
80398;SDS011;69722;48.642;9.142;2023-05-25T13:50:51;12.10;;;5.88;;
80398;SDS011;69722;48.642;9.142;2023-05-25T13:53:16;7.43;;;3.90;;
80398;SDS011;69722;48.642;9.142;2023-05-25T13:55:42;10.50;;;5.73;;
80398;SDS011;69722;48.642;9.142;2023-05-25T13:58:07;7.32;;;4.10;;
80398;SDS011;69722;48.642;9.142;2023-05-25T14:00:33;8.98;;;5.68;;
80398;SDS011;69722;48.642;9.142;2023-05-25T14:02:58;10.68;;;4.78;;
80398;SDS011;69722;48.642;9.142;2023-05-25T14:05:24;7.50;;;5.17;;
80398;SDS011;69722;48.642;9.142;2023-05-25T14:07:49;8.48;;;5.28;;
80398;SDS011;69722;48.642;9.142;2023-05-25T14:10:16;11.57;;;5.93;;
80398;SDS011;69722;48.642;9.142;2023-05-25T14:12:41;10.38;;;5.40;;
80398;SDS011;69722;48.642;9.142;2023-05-25T14:15:06;9.40;;;5.30;;
80398;SDS011;69722;48.642;9.142;2023-05-25T14:17:33;12.88;;;5.65;;
80398;SDS011;69722;48.642;9.142;2023-05-25T14:19:58;9.32;;;4.78;;
80398;SDS011;69722;48.642;9.142;2023-05-25T14:22:24;8.65;;;4.75;;
80398;SDS011;69722;48.642;9.142;2023-05-25T14:24:50;11.32;;;4.63;;
80398;SDS011;69722;48.642;9.142;2023-05-25T14:27:16;9.95;;;4.57;;
80398;SDS011;69722;48.642;9.142;2023-05-25T14:29:45;11.85;;;5.32;;
80398;SDS011;69722;48.642;9.142;2023-05-25T14:32:11;10.65;;;5.10;;
80398;SDS011;69722;48.642;9.142;2023-05-25T14:34:36;9.03;;;5.20;;
80398;SDS011;69722;48.642;9.142;2023-05-25T14:37:01;9.25;;;5.75;;
80398;SDS011;69722;48.642;9.142;2023-05-25T14:39:27;14.18;;;5.18;;
80398;SDS011;69722;48.642;9.142;2023-05-25T14:41:53;11.82;;;5.10;;
80398;SDS011;69722;48.642;9.142;2023-05-25T14:44:20;12.07;;;5.10;;
80398;SDS011;69722;48.642;9.142;2023-05-25T14:46:45;8.73;;;4.80;;
80398;SDS011;69722;48.642;9.142;2023-05-25T14:49:10;11.17;;;5.00;;
80398;SDS011;69722;48.642;9.142;2023-05-25T14:51:37;12.07;;;5.85;;
80398;SDS011;69722;48.642;9.142;2023-05-25T14:54:02;9.65;;;5.18;;
80398;SDS011;69722;48.642;9.142;2023-05-25T14:56:30;9.50;;;5.05;;
80398;SDS011;69722;48.642;9.142;2023-05-25T14:58:55;12.45;;;4.53;;
80398;SDS011;69722;48.642;9.142;2023-05-25T15:01:20;10.77;;;4.77;;
80398;SDS011;69722;48.642;9.142;2023-05-25T15:03:46;9.80;;;4.43;;
80398;SDS011;69722;48.642;9.142;2023-05-25T15:06:11;9.55;;;4.80;;